Tiempo atmosférico en la estación meteorológica de Los Arcos, Navarra (470 m.)



Fecha
DESCASC
Temp. máxima en grados centígrados (hora)
DESCASC
Temp. mínima en grados centígrados (hora)
DESCASC
Temp. media en grados centígrados
DESCASC
Racha de viento máxima en m/sg (hora)
DESCASC
Velocidad máxima media en intervalos de 10 minutos(hora)
DESCASC
Precipitaciones diarias en mm
DESCASC
Precipitaciones de 00:00 a 06:00 en mm
DESCASC
Precipitaciones de 06:00 a 12:00 en mm
DESCASC
Precipitaciones de 12:00 a 18:00 en mm
DESCASC
Precipitaciones de 18:00 a 24:00 en mm
DESCASC
28-02-2021 9.8 (16:20) 1.4 (02:20) 5.6 11.67 (21:20) 7.5 (21:40) 0.4 0 0 0 0.4
27-02-2021 17.1 (14:30) 4.5 (07:40) 10.8 8.33 (14:20) 4.72 (12:40) 0 0 0 0 0
26-02-2021 17.8 (15:40) 4.4 (07:40) 11.1 6.67 (22:40) 3.89 (22:50) 0 0 0 0 0
25-02-2021 12.2 (15:10) 6.3 (00:00) 9.3 8.06 (08:20) 4.72 (08:40) 0 0 0 0 0
24-02-2021 15.7 (16:00) 6.2 (00:00) 10.9 13.33 (12:30) 9.17 (12:50) 0 0 0 0 0
23-02-2021 14.7 (15:50) 4.5 (00:00) 9.6 11.94 (14:40) 7.78 (14:20) 0 0 0 0 0
22-02-2021 11.4 (00:00) 3.3 (00:00) 7.3 11.11 (04:20) 6.67 (00:10) 24.8 20.2 4.2 0 0.4
21-02-2021 11.7 (20:50) 7.2 (00:00) 9.4 13.89 (13:50) 8.61 (13:50) 0 0 0 0 0
20-02-2021 16 (14:40) 7.1 (00:00) 11.5 15.56 (13:10) 10.28 (08:40) 0 0 0 0 0
19-02-2021 18.8 (15:40) 5.9 (00:00) 12.3 9.72 (23:10) 6.11 (23:10) 0 0 0 0 0
18-02-2021 16.8 (15:50) 7.7 (00:00) 12.2 8.33 (04:20) 4.72 (04:40) 0 0 0 0 0
17-02-2021 14.9 (16:20) 5.2 (00:00) 10 7.22 (23:59) 4.17 (22:40) 0 0 0 0 0
16-02-2021 13.2 (15:20) 7.1 (00:00) 10.1 10.56 (00:10) 6.39 (00:50) 0 0 0 0 0
15-02-2021 8.6 (17:20) 5.2 (00:00) 6.9 10.83 (00:20) 6.94 (00:20) 0.2 0 0.2 0 0
14-02-2021 13.6 (14:40) 2.6 (00:00) 8.1 10.83 (23:50) 7.22 (23:50) 0 0 0 0 0
13-02-2021 14.4 (17:10) 4.3 (00:00) 9.3 8.89 (01:00) 5.28 (01:00) 0 0 0 0 0
12-02-2021 12.2 (14:50) 8.6 (00:00) 10.4 15.56 (21:30) 9.44 (21:30) 2.6 1 1.4 0.2 0
11-02-2021 17.7 (15:00) 3.5 (00:00) 10.6 9.72 (15:10) 5.28 (15:10) 0 0 0 0 0
10-02-2021 13.8 (14:30) 3.4 (00:00) 8.6 10.83 (13:20) 6.39 (13:20) 5.6 3.2 2.4 0 0
09-02-2021 10.3 (15:00) 4.8 (00:00) 7.6 11.39 (15:30) 5.56 (15:30) 2.4 0.2 0.4 1.6 0.2
08-02-2021 13 (14:10) 4.3 (00:00) 8.7 14.17 (12:30) 6.94 (13:10) 0.6 0.4 0.2 0 0
07-02-2021 10.8 (15:10) 2.1 (00:00) 6.5 10 (18:50) 5 (14:30) 1.2 0 0 0 1.2
06-02-2021 10.6 (00:00) 5.1 (00:00) 7.9 9.72 (15:40) 4.72 (14:20) 6.8 0 2.4 4.2 0.2
05-02-2021 15.5 (13:50) 8.2 (00:00) 11.8 10 (14:00) 6.11 (14:00) 0.2 0.2 0 0 0
04-02-2021 16.2 (15:40) 8.9 (00:00) 12.6 6.39 (11:30) 4.17 (11:20) 0 0 0 0 0
03-02-2021 14.1 (15:10) 7.7 (00:00) 10.9 5.83 (12:40) 3.89 (12:40) 0.4 0 0 0 0.4
02-02-2021 18.6 (15:30) 8.4 (23:50) 13.5 15.83 (08:10) 7.22 (08:40) 0 0 0 0 0
01-02-2021 15.6 (16:40) 6.8 (00:00) 11.2 14.44 (00:40) 7.22 (00:10) 0 0 0 0 0
31-01-2021 17 (15:00) 6.6 (00:00) 11.8 18.33 (22:10) 8.61 (22:10) 0.4 0.4 0 0 0

Gráficas

Temp. máximas Temp. mínimas Temp. medias Precipitaciones Rachas de viento máximas Velocidades máximas media en intervalos de 10 minutos

Datos horarios

Fecha y hora oficial Temperatura (ºC) Velocidad del viento (km/h) Dirección del viento Racha (km/h) Dirección de racha Precipitación (mm) Presión (hPa) Tendencia (hPa) Humedad (%)
2021-03-01 23:00:00 8.3 8 Este 18 Sudeste 0 -- -- 89
2021-03-01 22:00:00 8.5 12 Sudeste 25 Sudeste 0 -- -- 89
2021-03-01 21:00:00 8.5 14 Sudeste 28 Sudeste 0 -- -- 91
2021-03-01 20:00:00 8.3 9 Sudeste 19 Sudeste 0 -- -- 93
2021-03-01 19:00:00 8.5 12 Sudeste 33 Sudeste 0.6 -- -- 92
2021-03-01 18:00:00 9.5 15 Sudeste 29 Sudeste 0 -- -- 81
2021-03-01 17:00:00 10 14 Sudeste 24 Sudeste 0 -- -- 80
2021-03-01 16:00:00 10.1 9 Sudeste 30 Sudeste 0 -- -- 82
2021-03-01 15:00:00 11.2 16 Sudeste 31 Sudeste 0 -- -- 78
2021-03-01 14:00:00 10.3 13 Sudeste 33 Sudeste 0 -- -- 80
2021-03-01 13:00:00 9.6 17 Sudeste 29 Sudeste 0 -- -- 82
2021-03-01 12:00:00 8.4 11 Sudeste 26 Sur 0 -- -- 87
2021-03-01 11:00:00 7.9 12 Sudeste 27 Sudeste 0 -- -- 90
2021-03-01 10:00:00 7.3 13 Este 21 Este 0 -- -- 90
2021-03-01 09:00:00 6.9 10 Este 22 Sudeste 0 -- -- 93
2021-03-01 08:00:00 6.7 12 Este 16 Sudeste 0 -- -- 94
2021-03-01 07:00:00 6.7 14 Sudeste 26 Este 0 -- -- 93
2021-03-01 06:00:00 6.6 9 Sudeste 18 Sudeste 0 -- -- 94
2021-03-01 05:00:00 6.6 12 Este 24 Este 0 -- -- 92
2021-03-01 04:00:00 6.6 16 Este 32 Este 0 -- -- 91
2021-03-01 03:00:00 6.4 15 Este 32 Sudeste 0 -- -- 91
2021-03-01 02:00:00 7 16 Sudeste 35 Sudeste 0 -- -- 88
2021-03-01 01:00:00 6.9 23 Sudeste 35 Sudeste 0 -- -- 88
2021-03-01 00:00:00 7.4 15 Este 26 Sudeste 0 -- -- 86
2021-02-28 23:00:00 7.6 12 Este 31 Este 0 -- -- 87
2021-02-28 22:00:00 8.4 19 Este 42 Sudeste 0 -- -- 86
2021-02-28 21:00:00 8.4 19 Este 32 Sudeste 0 -- -- 96
2021-02-28 20:00:00 8.1 12 Este 25 Este 0 -- -- 96
2021-02-28 19:00:00 8.2 17 Este 26 Sudeste 0.4 -- -- 94
2021-02-28 18:00:00 8.9 13 Sudeste 23 Este 0 -- -- 87
2021-02-28 17:00:00 9.3 16 Sudeste 34 Sudeste 0 -- -- 82
2021-02-28 16:00:00 9.7 17 Sudeste 31 Este 0 -- -- 80
2021-02-28 15:00:00 8.8 21 Sudeste 32 Sudeste 0 -- -- 84
2021-02-28 14:00:00 8.1 15 Sudeste 30 Sudeste 0 -- -- 87
2021-02-28 13:00:00 8 17 Este 27 Este 0 -- -- 86
2021-02-28 12:00:00 7.3 4 Este 6 Este 0 -- -- 88
2021-02-28 11:00:00 6.9 3 Sudeste 6 Noroeste 0 -- -- 88
2021-02-28 10:00:00 5.9 5 Noroeste 6 Noroeste 0 -- -- 94
2021-02-28 09:00:00 5.3 0 Calma 3 Este 0 -- -- 92
2021-02-28 08:00:00 5 2 Norte 4 Norte 0 -- -- 90
2021-02-28 07:00:00 4.6 4 Norte 6 Norte 0 -- -- 90
2021-02-28 06:00:00 4.2 0 Calma 3 Sudoeste 0 -- -- 92
2021-02-28 05:00:00 3.6 6 Noroeste 10 Norte 0 -- -- 93
2021-02-28 04:00:00 3.1 5 Noroeste 15 Noroeste 0 -- -- 94
2021-02-28 03:00:00 1.4 5 Noroeste 9 Noroeste 0 -- -- 92
2021-02-28 02:00:00 2 4 Noroeste 13 Noroeste 0 -- -- 87
2021-02-28 01:00:00 3 4 Oeste 13 Noroeste 0 -- -- 86
2021-02-28 00:00:00 4.5 7 Oeste 18 Oeste 0 -- -- 81
2021-02-27 23:00:00 5.6 9 Oeste 19 Noroeste 0 -- -- 76
2021-02-27 22:00:00 4.9 6 Oeste 21 Noroeste 0 -- -- 76
2021-02-27 21:00:00 6.3 13 Noroeste 20 Oeste 0 -- -- 69
2021-02-27 20:00:00 7.8 10 Noroeste 19 Noroeste 0 -- -- 63
2021-02-27 19:00:00 10.3 8 Noroeste 24 Noroeste 0 -- -- 58
2021-02-27 18:00:00 13.9 13 Noroeste 24 Noroeste 0 -- -- 46
2021-02-27 17:00:00 15.4 11 Norte 24 Norte 0 -- -- 42
2021-02-27 16:00:00 16.1 14 Norte 28 Norte 0 -- -- 41
2021-02-27 15:00:00 16.6 13 Norte 30 Noroeste 0 -- -- 42
2021-02-27 14:00:00 16.5 15 Noroeste 29 Noroeste 0 -- -- 47
2021-02-27 13:00:00 15.8 12 Noroeste 28 Noroeste 0 -- -- 48
2021-02-27 12:00:00 14.8 14 Noroeste 28 Noroeste 0 -- -- 54
2021-02-27 11:00:00 13.7 13 Noroeste 26 Noroeste 0 -- -- 62
2021-02-27 10:00:00 12 9 Noroeste 21 Noroeste 0 -- -- 71
2021-02-27 09:00:00 8 6 Noroeste 14 Noroeste 0 -- -- 87
2021-02-27 08:00:00 4.6 6 Oeste 13 Noroeste 0 -- -- 94
2021-02-27 07:00:00 4.7 11 Noroeste 14 Noroeste 0 -- -- 92
2021-02-27 06:00:00 4.9 6 Oeste 12 Oeste 0 -- -- 91
2021-02-27 05:00:00 5.1 6 Oeste 12 Oeste 0 -- -- 92
2021-02-27 04:00:00 4.7 9 Noroeste 13 Noroeste 0 -- -- 92
2021-02-27 03:00:00 5.2 6 Oeste 13 Noroeste 0 -- -- 90
2021-02-27 02:00:00 6.9 9 Noroeste 16 Oeste 0 -- -- 87
2021-02-27 01:00:00 7.4 6 Oeste 15 Noroeste 0 -- -- 85
2021-02-27 00:00:00 8 7 Noroeste 23 Nordeste 0 -- -- 84
2021-02-26 23:00:00 8.6 12 Norte 24 Norte 0 -- -- 84
2021-02-26 22:00:00 8.6 6 Noroeste 20 Norte 0 -- -- 86
2021-02-26 21:00:00 9.3 6 Noroeste 20 Norte 0 -- -- 82
2021-02-26 20:00:00 10.7 7 Norte 17 Norte 0 -- -- 78
2021-02-26 19:00:00 12.7 7 Noroeste 13 Oeste 0 -- -- 72
2021-02-26 18:00:00 15.6 6 Sudoeste 12 Sudoeste 0 -- -- 65
2021-02-26 17:00:00 16.9 0 Calma 8 Sur 0 -- -- 58
2021-02-26 16:00:00 16.6 5 Nordeste 12 Nordeste 0 -- -- 57
2021-02-26 15:00:00 16.8 4 Nordeste 15 Norte 0 -- -- 56
2021-02-26 14:00:00 16.7 5 Nordeste 14 Norte 0 -- -- 58
2021-02-26 13:00:00 15.1 5 Oeste 14 Sudoeste 0 -- -- 64
2021-02-26 12:00:00 13.9 6 Sudoeste 11 Sudoeste 0 -- -- 68
2021-02-26 11:00:00 12.3 5 Sudoeste 9 Sudoeste 0 -- -- 79
2021-02-26 10:00:00 10 4 Sudoeste 12 Noroeste 0 -- -- 87
2021-02-26 09:00:00 6.3 10 Noroeste 14 Noroeste 0 -- -- 97
2021-02-26 08:00:00 4.5 6 Norte 10 Norte 0 -- -- 96
2021-02-26 07:00:00 4.7 4 Norte 8 Noroeste 0 -- -- 95
2021-02-26 06:00:00 5.4 5 Noroeste 12 Noroeste 0 -- -- 94
2021-02-26 05:00:00 5.8 10 Noroeste 13 Noroeste 0 -- -- 95
2021-02-26 04:00:00 5.9 10 Noroeste 13 Noroeste 0 -- -- 95
2021-02-26 03:00:00 6.2 9 Noroeste 10 Noroeste 0 -- -- 95
2021-02-26 02:00:00 5.9 5 Noroeste 14 Noroeste 0 -- -- 94
2021-02-26 01:00:00 6.1 8 Noroeste 13 Noroeste 0 -- -- 93
2021-02-26 00:00:00 6.9 0 Calma 12 Norte 0 -- -- 91
2021-02-25 23:00:00 7.7 10 Norte 12 Norte 0 -- -- 89
2021-02-25 22:00:00 8.2 9 Norte 11 Norte 0 -- -- 90
2021-02-25 21:00:00 7.9 9 Norte 10 Norte 0 -- -- 90
2021-02-25 20:00:00 8.4 7 Norte 9 Norte 0 -- -- 88
2021-02-25 19:00:00 9.8 6 Nordeste 8 Nordeste 0 -- -- 83
2021-02-25 18:00:00 11.6 3 Este 9 Sudeste 0 -- -- 78
2021-02-25 17:00:00 12.2 5 Sudeste 16 Sudeste 0 -- -- 75
2021-02-25 16:00:00 12.1 10 Sudeste 23 Sudeste 0 -- -- 73
2021-02-25 15:00:00 11.9 11 Sudeste 20 Este 0 -- -- 74
2021-02-25 14:00:00 10.8 13 Este 24 Sudeste 0 -- -- 78
2021-02-25 13:00:00 10.5 15 Sudeste 29 Este 0 -- -- 80
2021-02-25 12:00:00 9.6 16 Este 27 Sudeste 0 -- -- 85
2021-02-25 11:00:00 8.7 17 Este 27 Sudeste 0 -- -- 87
2021-02-25 10:00:00 7.5 13 Este 25 Este 0 -- -- 91
2021-02-25 09:00:00 7.1 16 Este 29 Este 0 -- -- 93
2021-02-25 08:00:00 6.7 14 Este 22 Este 0 -- -- 94
2021-02-25 07:00:00 6.7 13 Este 24 Este 0 -- -- 95
2021-02-25 06:00:00 6.7 10 Este 24 Este 0 -- -- 95
2021-02-25 05:00:00 6.6 12 Este 21 Este 0 -- -- 96
2021-02-25 04:00:00 6.9 10 Este 23 Este 0 -- -- 93
2021-02-25 03:00:00 8.3 10 Este 14 Este 0 -- -- 94
2021-02-25 02:00:00 8.1 3 Nordeste 18 Este 0 -- -- 93
2021-02-25 01:00:00 9 10 Este 25 Este 0 -- -- 93
2021-02-25 00:00:00 9.5 15 Este 24 Este 0 -- -- 91
2021-02-24 23:00:00 9.5 14 Este 27 Este 0 -- -- 92
2021-02-24 22:00:00 9.9 16 Este 24 Este 0 -- -- 92
2021-02-24 21:00:00 10.4 16 Este 24 Este 0 -- -- 91
2021-02-24 20:00:00 11.2 14 Este 27 Sudeste 0 -- -- 86
2021-02-24 19:00:00 12.7 21 Sudeste 35 Sudeste 0 -- -- 80
2021-02-24 18:00:00 14.1 18 Sudeste 44 Sudeste 0 -- -- 76
2021-02-24 17:00:00 15.1 29 Sudeste 43 Sudeste 0 -- -- 70
2021-02-24 16:00:00 15.7 24 Sudeste 45 Sudeste 0 -- -- 71
2021-02-24 15:00:00 15.4 25 Sudeste 44 Sudeste 0 -- -- 70
2021-02-24 14:00:00 14 28 Sudeste 48 Sur 0 -- -- 75
2021-02-24 13:00:00 13.3 30 Sudeste 48 Sudeste 0 -- -- 78
2021-02-24 12:00:00 12.1 27 Sudeste 42 Sudeste 0 -- -- 84
2021-02-24 11:00:00 10.7 26 Sudeste 41 Sudeste 0 -- -- 88
2021-02-24 10:00:00 8.7 29 Sudeste 41 Sudeste 0 -- -- 96
2021-02-24 09:00:00 7.6 23 Sudeste 35 Sudeste 0 -- -- 97
2021-02-24 08:00:00 6.7 17 Sudeste 33 Sudeste 0 -- -- 97
2021-02-24 07:00:00 7 24 Sudeste 34 Sudeste 0 -- -- 97
2021-02-24 06:00:00 6.4 11 Este 18 Sudeste 0 -- -- 96
2021-02-24 05:00:00 6.8 10 Este 18 Este 0 -- -- 95
2021-02-24 04:00:00 7.2 12 Este 21 Este 0 -- -- 94
2021-02-24 03:00:00 7.7 16 Este 24 Este 0 -- -- 92
2021-02-24 02:00:00 8.1 16 Este 24 Este 0 -- -- 91
2021-02-24 01:00:00 7.9 11 Este 16 Este 0 -- -- 90
2021-02-24 00:00:00 8.1 11 Este 20 Sudeste 0 -- -- 88
2021-02-23 23:00:00 9 14 Sudeste 23 Sudeste 0 -- -- 85
2021-02-23 22:00:00 9.2 14 Sudeste 24 Sudeste 0 -- -- 83
2021-02-23 21:00:00 9.4 12 Sudeste 23 Este 0 -- -- 81
2021-02-23 20:00:00 10.4 16 Sudeste 27 Sudeste 0 -- -- 77
2021-02-23 19:00:00 11.3 18 Sudeste 27 Sudeste 0 -- -- 72
2021-02-23 18:00:00 13.2 18 Sudeste 34 Sudeste 0 -- -- 65
2021-02-23 17:00:00 14.1 23 Sudeste 42 Sudeste 0 -- -- 61
2021-02-23 16:00:00 14.5 27 Sudeste 42 Sudeste 0 -- -- 60
2021-02-23 15:00:00 14.2 27 Sudeste 43 Sudeste 0 -- -- 61
2021-02-23 14:00:00 13.8 25 Sudeste 40 Sudeste 0 -- -- 66
2021-02-23 13:00:00 12.7 23 Sudeste 40 Sudeste 0 -- -- 70
2021-02-23 12:00:00 11.4 19 Sudeste 35 Este 0 -- -- 76
2021-02-23 11:00:00 10 17 Sudeste 27 Este 0 -- -- 82
2021-02-23 10:00:00 8.1 15 Este 23 Este 0 -- -- 91
2021-02-23 09:00:00 6.4 10 Este 20 Este 0 -- -- 99
2021-02-23 08:00:00 5.1 15 Este 25 Este 0 -- -- 98
2021-02-23 07:00:00 5.1 12 Este 21 Este 0 -- -- 97
2021-02-23 06:00:00 5.2 9 Este 16 Este 0 -- -- 97
2021-02-23 05:00:00 5.6 10 Este 17 Este 0 -- -- 96
2021-02-23 04:00:00 5.7 0 Calma 9 Este 0 -- -- 97
2021-02-23 03:00:00 5.8 6 Este 10 Este 0 -- -- 97
2021-02-23 02:00:00 5.6 0 Calma 9 Norte 0 -- -- 97
2021-02-23 01:00:00 5.5 7 Norte 9 Nordeste 0 -- -- 97
2021-02-23 00:00:00 4.5 9 Norte 10 Norte 0 -- -- 96
2021-02-22 23:00:00 4.8 5 Noroeste 8 Noroeste 0 -- -- 93
2021-02-22 22:00:00 6.1 3 Este 8 Noroeste 0.2 -- -- 93
2021-02-22 21:00:00 6.6 6 Noroeste 10 Oeste 0.2 -- -- 93
2021-02-22 20:00:00 6.8 0 Calma 6 Noroeste 0 -- -- 91
2021-02-22 19:00:00 7.1 4 Oeste 10 Oeste 0 -- -- 90
2021-02-22 18:00:00 7.3 5 Oeste 13 Oeste 0 -- -- 91
2021-02-22 17:00:00 7.8 5 Oeste 14 Oeste 0 -- -- 87
2021-02-22 16:00:00 7.7 3 Oeste 16 Oeste 0 -- -- 88
2021-02-22 15:00:00 7.5 6 Oeste 19 Oeste 0 -- -- 88
2021-02-22 14:00:00 6.9 8 Oeste 19 Sudoeste 0 -- -- 91
2021-02-22 13:00:00 5.9 10 Oeste 24 Oeste 0 -- -- 93
2021-02-22 12:00:00 5.3 14 Oeste 26 Oeste 0.4 -- -- 93
2021-02-22 11:00:00 4.6 10 Oeste 19 Oeste 0.8 -- -- 95
2021-02-22 10:00:00 4 8 Oeste 17 Oeste 1 -- -- 95
2021-02-22 09:00:00 3.6 9 Oeste 22 Oeste 0 -- -- 94
2021-02-22 08:00:00 3.4 10 Oeste 23 Oeste 0.6 -- -- 95
2021-02-22 07:00:00 3.6 8 Oeste 21 Oeste 1.4 -- -- 93
2021-02-22 06:00:00 3.9 15 Noroeste 33 Noroeste 6 -- -- 92
2021-02-22 05:00:00 4.5 17 Noroeste 40 Norte 6.2 -- -- 91
2021-02-22 04:00:00 5.4 12 Noroeste 30 Norte 6.6 -- -- 89
2021-02-22 03:00:00 9.7 7 Este 20 Sudeste 0.2 -- -- 89
2021-02-22 02:00:00 9.6 9 Sudeste 28 Sudeste 1.2 -- -- 90
2021-02-22 01:00:00 11.1 21 Sudeste 39 Sudeste 0 -- -- 77
2021-02-22 00:00:00 11.4 26 Sudeste 41 Sudeste 0 -- -- 74
2021-02-21 23:00:00 11.3 19 Sudeste 36 Sudeste 0 -- -- 76
2021-02-21 22:00:00 11.2 18 Este 37 Este 0 -- -- 77
2021-02-21 21:00:00 11.7 21 Sudeste 39 Sudeste 0 -- -- 75
2021-02-21 20:00:00 11.4 17 Sudeste 29 Sudeste 0 -- -- 78
2021-02-21 19:00:00 10.7 13 Este 26 Este 0 -- -- 81
2021-02-21 18:00:00 10.9 13 Este 27 Sudeste 0 -- -- 80
2021-02-21 17:00:00 10.4 9 Este 18 Sudeste 0 -- -- 82
2021-02-21 16:00:00 10.6 11 Sudeste 24 Sudeste 0 -- -- 80
2021-02-21 15:00:00 10.6 15 Sudeste 47 Sudeste 0 -- -- 80
2021-02-21 14:00:00 10.4 31 Sudeste 50 Sudeste 0 -- -- 78
2021-02-21 13:00:00 10.5 27 Sudeste 39 Sudeste 0 -- -- 76
2021-02-21 12:00:00 10.5 22 Sudeste 41 Sudeste 0 -- -- 77
2021-02-21 11:00:00 9.8 17 Sudeste 37 Este 0 -- -- 79
2021-02-21 10:00:00 8.6 22 Sudeste 42 Sudeste 0 -- -- 85
2021-02-21 09:00:00 7.8 23 Sudeste 39 Sudeste 0 -- -- 88
2021-02-21 08:00:00 7.5 17 Sudeste 28 Sudeste 0 -- -- 88
2021-02-21 07:00:00 7.3 12 Este 32 Sudeste 0 -- -- 86
2021-02-21 06:00:00 7.3 16 Sudeste 41 Este 0 -- -- 86
2021-02-21 05:00:00 7.4 21 Sudeste 33 Sudeste 0 -- -- 85
2021-02-21 04:00:00 7.7 14 Este 28 Sudeste 0 -- -- 82
2021-02-21 03:00:00 8.4 19 Sudeste 37 Sudeste 0 -- -- 76
2021-02-21 02:00:00 8.6 14 Sudeste 26 Sudeste 0 -- -- 75
2021-02-21 01:00:00 9.3 14 Este 42 Sudeste 0 -- -- 72
2021-02-21 00:00:00 9.8 24 Sudeste 47 Sudeste 0 -- -- 71
2021-02-20 23:00:00 10.4 30 Sudeste 46 Sudeste 0 -- -- 69
2021-02-20 22:00:00 11.1 24 Sudeste 42 Sudeste 0 -- -- 67
2021-02-20 21:00:00 11.9 25 Sudeste 38 Este 0 -- -- 66
2021-02-20 20:00:00 13.1 24 Sudeste 44 Sudeste 0 -- -- 65
2021-02-20 19:00:00 13.7 25 Sudeste 37 Sudeste 0 -- -- 66
2021-02-20 18:00:00 14.4 19 Sudeste 33 Este 0 -- -- 64
2021-02-20 17:00:00 14.5 25 Sudeste 45 Sudeste 0 -- -- 61
2021-02-20 16:00:00 15.2 26 Sudeste 46 Sudeste 0 -- -- 60
2021-02-20 15:00:00 15.9 34 Sudeste 53 Sudeste 0 -- -- 56
2021-02-20 14:00:00 14.7 31 Sudeste 56 Sudeste 0 -- -- 56
2021-02-20 13:00:00 14.1 32 Sudeste 52 Sudeste 0 -- -- 60
2021-02-20 12:00:00 12.3 34 Este 53 Este 0 -- -- 65
2021-02-20 11:00:00 10.7 27 Este 42 Este 0 -- -- 70
2021-02-20 10:00:00 8 31 Sudeste 52 Sudeste 0 -- -- 73
2021-02-20 09:00:00 9 36 Sudeste 53 Sudeste 0 -- -- 67
2021-02-20 08:00:00 7.6 24 Sudeste 40 Este 0 -- -- 73
2021-02-20 07:00:00 7.6 26 Este 40 Sudeste 0 -- -- 75
2021-02-20 06:00:00 7.5 24 Sudeste 35 Sudeste 0 -- -- 77
2021-02-20 05:00:00 7.1 18 Sudeste 29 Sudeste 0 -- -- 79
2021-02-20 04:00:00 7.4 15 Este 26 Sudeste 0 -- -- 78
2021-02-20 03:00:00 8 12 Este 22 Este 0 -- -- 76
2021-02-20 02:00:00 8.4 16 Este 41 Sudeste 0 -- -- 75
2021-02-20 01:00:00 9.9 22 Sudeste 37 Sudeste 0 -- -- 67
2021-02-20 00:00:00 10.2 18 Este 35 Sudeste 0 -- -- 66
2021-02-19 23:00:00 10.6 19 Este 35 Sudeste 0 -- -- 65
2021-02-19 22:00:00 11.4 16 Este 33 Sudeste 0 -- -- 65
2021-02-19 21:00:00 11.6 19 Este 30 Este 0 -- -- 66
2021-02-19 20:00:00 11.9 18 Este 29 Este 0 -- -- 66
2021-02-19 19:00:00 13.2 15 Este 24 Sudeste 0 -- -- 61
2021-02-19 18:00:00 16.5 12 Sudeste 22 Sudeste 0 -- -- 47
2021-02-19 17:00:00 18.1 14 Sudeste 29 Sudeste 0 -- -- 47
2021-02-19 16:00:00 18.6 17 Sudeste 31 Sudeste 0 -- -- 44
2021-02-19 15:00:00 18.6 17 Sudeste 33 Sudeste 0 -- -- 47
2021-02-19 14:00:00 17.3 21 Sudeste 32 Sudeste 0 -- -- 50
2021-02-19 13:00:00 15.5 18 Este 31 Este 0 -- -- 57
2021-02-19 12:00:00 13.5 18 Este 27 Este 0 -- -- 60
2021-02-19 11:00:00 11.6 14 Este 23 Este 0 -- -- 66
2021-02-19 10:00:00 9.5 8 Este 17 Este 0 -- -- 73
2021-02-19 09:00:00 7.8 8 Este 16 Este 0 -- -- 72
2021-02-19 08:00:00 5.9 3 Este 12 Este 0 -- -- 80
2021-02-19 07:00:00 7.1 8 Nordeste 14 Este 0 -- -- 76
2021-02-19 06:00:00 7.3 7 Este 15 Nordeste 0 -- -- 77
2021-02-19 05:00:00 7.4 9 Nordeste 15 Nordeste 0 -- -- 76
2021-02-19 04:00:00 7.6 11 Este 17 Este 0 -- -- 81
2021-02-19 03:00:00 7.9 8 Nordeste 10 Nordeste -- -- -- 85
2021-02-19 02:00:00 7.8 5 Norte 8 Norte 0 -- -- 84
2021-02-19 01:00:00 9.4 5 Este 8 Este 0 -- -- 77
2021-02-19 00:00:00 10.2 3 Nordeste 6 Noroeste 0 -- -- 76
2021-02-18 23:00:00 10.3 3 Oeste 8 Norte 0 -- -- 74
2021-02-18 22:00:00 10.4 0 Calma 11 Noroeste 0 -- -- 72
2021-02-18 21:00:00 11.6 4 Noroeste 10 Norte 0 -- -- 68
2021-02-18 20:00:00 11.9 6 Norte 9 Norte 0 -- -- 69
2021-02-18 19:00:00 13.2 0 Calma 7 Noroeste 0 -- -- 61
2021-02-18 18:00:00 14.6 2 Este 10 Este 0 -- -- 54
2021-02-18 17:00:00 16 8 Este 13 Este 0 -- -- 56
2021-02-18 16:00:00 16.5 9 Este 13 Este 0 -- -- 52
2021-02-18 15:00:00 16.3 10 Este 19 Este 0 -- -- 56
2021-02-18 14:00:00 15.7 14 Este 23 Este 0 -- -- 60
2021-02-18 13:00:00 14 13 Este 21 Este 0 -- -- 65
2021-02-18 12:00:00 12.1 15 Este 26 Este 0 -- -- 72
2021-02-18 11:00:00 8.6 15 Este 26 Este 0 -- -- 85
2021-02-18 10:00:00 8.4 11 Este 20 Este 0 -- -- 84
2021-02-18 09:00:00 8.1 10 Este 29 Sudeste 0 -- -- 84
2021-02-18 08:00:00 7.8 13 Nordeste 24 Este 0 -- -- 87
2021-02-18 07:00:00 8.2 13 Este 26 Este 0 -- -- 87
2021-02-18 06:00:00 8.9 12 Este 24 Este 0 -- -- 85
2021-02-18 05:00:00 9.1 16 Este 30 Este 0 -- -- 87
2021-02-18 04:00:00 9.1 16 Este 25 Este 0 -- -- 86
2021-02-18 03:00:00 8.9 13 Este 22 Este 0 -- -- 88
2021-02-18 02:00:00 9.2 9 Nordeste 26 Este 0 -- -- 87
2021-02-18 01:00:00 9.8 17 Este 27 Este 0 -- -- 85
2021-02-18 00:00:00 9.8 15 Este 26 Nordeste 0 -- -- 84
2021-02-17 23:00:00 9.8 13 Este 23 Este 0 -- -- 86
2021-02-17 22:00:00 9.7 10 Este 16 Nordeste 0 -- -- 85
2021-02-17 21:00:00 10.4 12 Este 21 Este 0 -- -- 82
2021-02-17 20:00:00 10.8 11 Este 18 Este 0 -- -- 81
2021-02-17 19:00:00 11.2 7 Este 9 Este 0 -- -- 81
2021-02-17 18:00:00 13.2 3 Sudeste 15 Sudeste 0 -- -- 77
2021-02-17 17:00:00 14.2 10 Sudeste 20 Este 0 -- -- 71
2021-02-17 16:00:00 13.7 3 Sudeste 12 Este 0 -- -- 75
2021-02-17 15:00:00 13.4 5 Este 12 Este 0 -- -- 73
2021-02-17 14:00:00 13.3 9 Sudeste 22 Sudeste 0 -- -- 75
2021-02-17 13:00:00 12.5 10 Sudeste 15 Sudeste 0 -- -- 80
2021-02-17 12:00:00 11.8 10 Sudeste 19 Este 0 -- -- 81
2021-02-17 11:00:00 10.1 9 Sudeste 19 Sudeste 0 -- -- 88
2021-02-17 10:00:00 9.3 7 Este 11 Este 0 -- -- 93
2021-02-17 09:00:00 7.4 6 Este 8 Este 0 -- -- 98
2021-02-17 08:00:00 6.1 2 Noroeste 9 Norte 0 -- -- 97
2021-02-17 07:00:00 7.1 10 Norte 17 Noroeste 0 -- -- 97
2021-02-17 06:00:00 6.1 3 Norte 8 Norte 0 -- -- 98
2021-02-17 05:00:00 6.3 0 Calma 13 Norte 0 -- -- 96
2021-02-17 04:00:00 5.4 6 Norte 13 Norte 0 -- -- 96
2021-02-17 03:00:00 6.1 2 Este 6 Norte 0 -- -- 94
2021-02-17 02:00:00 6.9 3 Norte 8 Norte 0 -- -- 93
2021-02-17 01:00:00 8.1 2 Norte 10 Noroeste 0 -- -- 93
2021-02-17 00:00:00 8.3 0 Calma 9 Norte 0 -- -- 94
2021-02-16 23:00:00 8.3 4 Noroeste 13 Norte 0 -- -- 91
2021-02-16 22:00:00 9.1 4 Noroeste 12 Norte 0 -- -- 90
2021-02-16 21:00:00 9.2 5 Noroeste 10 Noroeste 0 -- -- 89
2021-02-16 20:00:00 9.5 0 Calma 8 Noroeste 0 -- -- 87
2021-02-16 19:00:00 10.9 5 Oeste 8 Sudoeste 0 -- -- 82
2021-02-16 18:00:00 12.3 2 Nordeste 8 Oeste 0 -- -- 76
2021-02-16 17:00:00 12.6 6 Sudeste 18 Este 0 -- -- 74
2021-02-16 16:00:00 13.2 11 Este 16 Este 0 -- -- 70
2021-02-16 15:00:00 12.5 8 Este 15 Este 0 -- -- 75
2021-02-16 14:00:00 10.7 4 Sudeste 19 Sudeste 0 -- -- 79
2021-02-16 13:00:00 9.5 7 Sudeste 21 Sudeste 0 -- -- 87
2021-02-16 12:00:00 8.4 15 Sudeste 23 Este 0 -- -- 87
2021-02-16 11:00:00 7.5 15 Este 29 Este 0 -- -- 91
2021-02-16 10:00:00 7.2 14 Este 29 Este 0 -- -- 92
2021-02-16 09:00:00 7.2 15 Este 30 Este 0 -- -- 93
2021-02-16 08:00:00 7.2 15 Sudeste 31 Sudeste 0 -- -- 93
2021-02-16 07:00:00 7.3 13 Este 28 Este 0 -- -- 92
2021-02-16 06:00:00 7.3 15 Este 24 Este 0 -- -- 92
2021-02-16 05:00:00 7.5 14 Este 29 Sudeste 0 -- -- 92
2021-02-16 04:00:00 7.3 17 Sudeste 30 Este 0 -- -- 93
2021-02-16 03:00:00 7.3 18 Este 29 Este 0 -- -- 93
2021-02-16 02:00:00 7.4 18 Este 32 Sudeste 0 -- -- 91
2021-02-16 01:00:00 7.8 22 Este 38 Sudeste 0 -- -- 89
2021-02-16 00:00:00 7.8 19 Este 38 Este 0 -- -- 90
2021-02-15 23:00:00 7.5 22 Este 34 Este 0 -- -- 90
2021-02-15 22:00:00 7.3 20 Este 30 Este 0 -- -- 91
2021-02-15 21:00:00 7.4 18 Este 32 Este 0 -- -- 90
2021-02-15 20:00:00 8.3 13 Este 30 Sudeste 0 -- -- 89
2021-02-15 19:00:00 8.4 12 Este 26 Este 0 -- -- 89
2021-02-15 18:00:00 8.5 14 Este 26 Sudeste 0 -- -- 87
2021-02-15 17:00:00 8.5 13 Este 24 Este 0 -- -- 87
2021-02-15 16:00:00 8.3 12 Este 22 Este 0 -- -- 85
2021-02-15 15:00:00 7.9 17 Sudeste 23 Sudeste 0 -- -- 86
2021-02-15 14:00:00 7.4 12 Este 22 Sudeste 0 -- -- 90
2021-02-15 13:00:00 6.8 12 Este 19 Este 0 -- -- 92
2021-02-15 12:00:00 6.3 12 Este 21 Este 0 -- -- 95
2021-02-15 11:00:00 5.8 12 Este 19 Sudeste 0 -- -- 97
2021-02-15 10:00:00 5.5 11 Este 18 Este 0 -- -- 97
2021-02-15 09:00:00 5.4 11 Este 19 Este 0.2 -- -- 97
2021-02-15 08:00:00 5.3 9 Este 17 Este 0 -- -- 97
2021-02-15 07:00:00 5.3 11 Este 18 Este 0 -- -- 97
2021-02-15 06:00:00 5.5 12 Este 21 Este 0 -- -- 96
2021-02-15 05:00:00 5.7 14 Este 22 Este 0 -- -- 95
2021-02-15 04:00:00 6 14 Este 27 Este 0 -- -- 92
2021-02-15 03:00:00 6.3 16 Este 30 Este 0 -- -- 91
2021-02-15 02:00:00 6.7 20 Este 31 Este 0 -- -- 91
2021-02-15 01:00:00 7.1 19 Este 39 Este 0 -- -- 89
2021-02-15 00:00:00 7.5 22 Este 39 Sudeste 0 -- -- 89
2021-02-14 23:00:00 7.7 17 Este 30 Este 0 -- -- 91
2021-02-14 22:00:00 8.1 21 Este 32 Este 0 -- -- 90
2021-02-14 21:00:00 8.7 21 Este 34 Este 0 -- -- 87
2021-02-14 20:00:00 9.3 20 Este 32 Sudeste 0 -- -- 85
2021-02-14 19:00:00 10 20 Este 36 Sudeste 0 -- -- 81
2021-02-14 18:00:00 10.8 18 Este 32 Este 0 -- -- 78
2021-02-14 17:00:00 11.5 17 Este 36 Este 0 -- -- 75
2021-02-14 16:00:00 11.9 22 Sudeste 36 Sudeste 0 -- -- 73
2021-02-14 15:00:00 12.3 22 Sudeste 35 Sudeste 0 -- -- 71
2021-02-14 14:00:00 12.3 18 Sudeste 32 Sudeste 0 -- -- 71
2021-02-14 13:00:00 11.7 22 Este 32 Este 0 -- -- 73
2021-02-14 12:00:00 9.6 17 Este 26 Este 0 -- -- 81
2021-02-14 11:00:00 8.5 14 Este 23 Este 0 -- -- 83
2021-02-14 10:00:00 7.8 9 Este 14 Este 0 -- -- 89
2021-02-14 09:00:00 4.9 2 Sudeste 10 Nordeste 0 -- -- 95
2021-02-14 08:00:00 3.9 4 Nordeste 8 Nordeste 0 -- -- 97
2021-02-14 07:00:00 3.1 6 Nordeste 12 Nordeste 0 -- -- 95
2021-02-14 06:00:00 3.2 9 Nordeste 14 Nordeste 0 -- -- 96
2021-02-14 05:00:00 2.6 5 Este 14 Noroeste 0 -- -- 93
2021-02-14 04:00:00 3.8 6 Noroeste 19 Noroeste 0 -- -- 93
2021-02-14 03:00:00 3.7 3 Noroeste 14 Noroeste 0 -- -- 93
2021-02-14 02:00:00 4.1 4 Noroeste 15 Norte 0 -- -- 91
2021-02-14 01:00:00 5.2 5 Norte 12 Norte 0 -- -- 89
2021-02-14 00:00:00 5.7 5 Nordeste 17 Noroeste 0 -- -- 88
2021-02-13 23:00:00 6.2 9 Noroeste 17 Noroeste 0 -- -- 86
2021-02-13 22:00:00 6.9 5 Nordeste 10 Noroeste 0 -- -- 81
2021-02-13 21:00:00 7.8 8 Noroeste 9 Noroeste 0 -- -- 78
2021-02-13 20:00:00 9.2 5 Norte 15 Oeste 0 -- -- 74
2021-02-13 19:00:00 9.1 10 Noroeste 15 Noroeste 0 -- -- 73
2021-02-13 18:00:00 12.5 4 Oeste 19 Noroeste 0 -- -- 62
2021-02-13 17:00:00 14.2 9 Noroeste 17 Noroeste 0 -- -- 54
2021-02-13 16:00:00 12.1 4 Sudoeste 15 Noroeste 0 -- -- 69
2021-02-13 15:00:00 11.4 8 Oeste 21 Oeste 0 -- -- 70
2021-02-13 14:00:00 11.7 10 Oeste 21 Oeste 0 -- -- 67
2021-02-13 13:00:00 11.1 10 Oeste 21 Oeste 0 -- -- 75
2021-02-13 08:00:00 -- -- -- -- -- -- -- -- --
2021-02-13 07:00:00 4.8 8 Noroeste 13 Norte 0 -- -- 93
2021-02-13 06:00:00 4.6 10 Norte 12 Norte 0 -- -- 93
2021-02-13 05:00:00 5.5 6 Noroeste 11 Oeste 0 -- -- 90
2021-02-13 04:00:00 5.5 4 Nordeste 9 Oeste 0 -- -- 89
2021-02-13 03:00:00 6.4 3 Oeste 9 Oeste 0 -- -- 86
2021-02-13 02:00:00 7.5 2 Sudoeste 29 Noroeste 0 -- -- 79
2021-02-13 01:00:00 9 19 Noroeste 32 Noroeste 0 -- -- 75
2021-02-13 00:00:00 9.3 8 Oeste 26 Oeste 0 -- -- 78
2021-02-12 23:00:00 9.4 9 Oeste 44 Noroeste 0 -- -- 77
2021-02-12 22:00:00 9.8 21 Noroeste 56 Noroeste 0 -- -- 75
2021-02-12 21:00:00 9.6 22 Noroeste 36 Noroeste 0 -- -- 80
2021-02-12 20:00:00 10 18 Noroeste 34 Noroeste 0 -- -- 77
2021-02-12 19:00:00 10.6 16 Oeste 33 Oeste 0 -- -- 75
2021-02-12 18:00:00 11.2 17 Oeste 39 Noroeste 0 -- -- 75
2021-02-12 17:00:00 11.6 17 Oeste 38 Noroeste 0 -- -- 75
2021-02-12 16:00:00 11.6 16 Oeste 32 Noroeste 0 -- -- 80
2021-02-12 15:00:00 11.8 15 Oeste 36 Noroeste 0 -- -- 80
2021-02-12 14:00:00 11.4 18 Oeste 36 Noroeste 0 -- -- 79
2021-02-12 13:00:00 10.4 15 Oeste 42 Oeste 0.2 -- -- 83
2021-02-12 12:00:00 10.7 17 Oeste 40 Oeste 0.2 -- -- 80
2021-02-12 11:00:00 10.7 11 Oeste 23 Oeste 0 -- -- 88
2021-02-12 10:00:00 9.6 5 Sudoeste 18 Sudoeste 0.2 -- -- 96
2021-02-12 09:00:00 8.9 2 Norte 6 Sudeste 0.2 -- -- 96
2021-02-12 08:00:00 9 5 Sudoeste 13 Noroeste 0.2 -- -- 95
2021-02-12 07:00:00 9.2 9 Norte 11 Norte 0.6 -- -- 95
2021-02-12 06:00:00 9.2 8 Norte 13 Nordeste 1 -- -- 94
2021-02-12 05:00:00 9.4 11 Noroeste 17 Noroeste 0 -- -- 91
2021-02-12 04:00:00 9.3 5 Nordeste 11 Nordeste 0 -- -- 89
2021-02-12 03:00:00 9.1 5 Nordeste 10 Nordeste 0 -- -- 90
2021-02-12 02:00:00 8.7 8 Norte 12 Nordeste 0 -- -- 87
2021-02-12 01:00:00 9.7 8 Nordeste 14 Nordeste 0 -- -- 86
2021-02-12 00:00:00 9.9 8 Nordeste 13 Este 0 -- -- 82
2021-02-11 23:00:00 10 5 Nordeste 11 Este 0 -- -- 81
2021-02-11 22:00:00 11 5 Nordeste 11 Nordeste 0 -- -- 76
2021-02-11 21:00:00 12.3 9 Este 17 Este 0 -- -- 71
2021-02-11 20:00:00 12.3 13 Este 18 Este 0 -- -- 75
2021-02-11 19:00:00 12.5 13 Este 20 Este 0 -- -- 73
2021-02-11 18:00:00 14.9 8 Este 17 Sudoeste 0 -- -- 70
2021-02-11 17:00:00 17.3 6 Oeste 20 Noroeste 0 -- -- 60
2021-02-11 16:00:00 17.4 11 Oeste 35 Sudoeste 0 -- -- 60
2021-02-11 15:00:00 17.7 15 Oeste 26 Sudoeste 0 -- -- 59
2021-02-11 14:00:00 15.8 7 Sudoeste 16 Sudoeste 0 -- -- 66
2021-02-11 13:00:00 13.7 6 Sudeste 13 Sudeste 0 -- -- 65
2021-02-11 12:00:00 11.7 4 Sur 9 Sudeste 0 -- -- 70
2021-02-11 11:00:00 10.1 5 Sudeste 11 Sudeste 0 -- -- 71
2021-02-11 10:00:00 6.8 5 Este 7 Este 0 -- -- 87
2021-02-11 09:00:00 5.2 0 Calma 4 Sudoeste 0 -- -- 93
2021-02-11 08:00:00 4.6 3 Este 6 Este 0 -- -- 93
2021-02-11 07:00:00 4.7 3 Norte 6 Norte 0 -- -- 94
2021-02-11 06:00:00 3.8 3 Norte 10 Este 0 -- -- 93
2021-02-11 05:00:00 4.3 6 Norte 13 Norte 0 -- -- 93
2021-02-11 04:00:00 3.9 5 Norte 11 Norte 0 -- -- 92
2021-02-11 03:00:00 4 5 Norte 11 Norte 0 -- -- 92
2021-02-11 02:00:00 3.8 4 Norte 9 Norte 0 -- -- 89
2021-02-11 01:00:00 4 5 Norte 14 Oeste 0 -- -- 88
2021-02-11 00:00:00 3.6 6 Este 12 Norte 0 -- -- 85
2021-02-10 23:00:00 4.4 5 Nordeste 9 Norte 0 -- -- 82
2021-02-10 22:00:00 5.8 3 Nordeste 8 Noroeste 0 -- -- 76
2021-02-10 21:00:00 7 5 Oeste 21 Noroeste 0 -- -- 70
2021-02-10 20:00:00 9.2 12 Noroeste 23 Noroeste 0 -- -- 63
2021-02-10 19:00:00 10.5 10 Oeste 25 Oeste 0 -- -- 60
2021-02-10 18:00:00 11.7 5 Noroeste 25 Noroeste 0 -- -- 58
2021-02-10 17:00:00 11.7 12 Noroeste 27 Noroeste 0 -- -- 58
2021-02-10 16:00:00 11.9 14 Oeste 36 Oeste 0 -- -- 57
2021-02-10 15:00:00 12 12 Oeste 36 Noroeste 0 -- -- 58
2021-02-10 14:00:00 13.1 17 Oeste 39 Oeste 0 -- -- 56
2021-02-10 13:00:00 10.7 18 Oeste 33 Sudoeste 0 -- -- 63
2021-02-10 12:00:00 9.6 18 Oeste 30 Oeste 0 -- -- 67
2021-02-10 11:00:00 7.5 12 Oeste 26 Noroeste 0 -- -- 79
2021-02-10 10:00:00 6.4 15 Oeste 27 Noroeste 0 -- -- 88
2021-02-10 09:00:00 5.5 13 Oeste 26 Noroeste 0 -- -- 94
2021-02-10 08:00:00 4.3 12 Noroeste 16 Noroeste 0.2 -- -- 96
2021-02-10 07:00:00 4.2 5 Norte 12 Noroeste 2.2 -- -- 96
2021-02-10 06:00:00 4.2 8 Noroeste 12 Noroeste 3.2 -- -- 95
2021-02-10 05:00:00 4.1 4 Este 17 Este 0 -- -- 93
2021-02-10 04:00:00 4 3 Este 6 Este 0 -- -- 89
2021-02-10 03:00:00 4.4 3 Oeste 6 Este 0 -- -- 91
2021-02-10 02:00:00 4.4 3 Sudoeste 13 Norte 0 -- -- 94
2021-02-10 01:00:00 3.4 9 Norte 12 Norte 0 -- -- 94
2021-02-10 00:00:00 4.9 8 Noroeste 13 Este 0 -- -- 93
2021-02-09 23:00:00 5.8 8 Nordeste 13 Nordeste 0.2 -- -- 92
2021-02-09 22:00:00 5.7 6 Sudeste 11 Este 0 -- -- 88
2021-02-09 21:00:00 6.3 2 Este 16 Sudoeste 0 -- -- 78
2021-02-09 20:00:00 7 9 Oeste 18 Sudoeste 0 -- -- 74
2021-02-09 19:00:00 7 3 Este 11 Noroeste 0 -- -- 72
2021-02-09 18:00:00 8.1 3 Oeste 9 Este 0.2 -- -- 78
2021-02-09 17:00:00 8.4 2 Sur 17 Noroeste 0 -- -- 81
2021-02-09 16:00:00 7.7 12 Oeste 41 Oeste 1.2 -- -- 82
2021-02-09 15:00:00 10.3 8 Sudeste 25 Sudeste 0 -- -- 79
2021-02-09 14:00:00 10.1 13 Sudeste 31 Sudeste 0.2 -- -- 77
2021-02-09 13:00:00 9.8 19 Sudeste 33 Sudeste 0 -- -- 76
2021-02-09 12:00:00 9.4 19 Sudeste 31 Sudeste 0 -- -- 76
2021-02-09 11:00:00 7.5 14 Este 23 Este 0 -- -- 83
2021-02-09 10:00:00 6.8 12 Este 19 Este 0 -- -- 89
2021-02-09 09:00:00 5 6 Este 13 Este 0 -- -- 94
2021-02-09 08:00:00 4.9 3 Este 9 Nordeste 0 -- -- 94
2021-02-09 07:00:00 5.1 5 Norte 8 Noroeste 0.4 -- -- 93
2021-02-09 06:00:00 5.1 2 Nordeste 9 Este 0.2 -- -- 92
2021-02-09 05:00:00 4.9 4 Este 15 Sudeste 0 -- -- 88
2021-02-09 04:00:00 5.7 2 Sur 6 Nordeste 0 -- -- 86
2021-02-09 03:00:00 6.7 5 Este 35 Oeste 0 -- -- 81
2021-02-09 02:00:00 8.8 19 Oeste 37 Oeste 0 -- -- 75
2021-02-09 01:00:00 8.2 18 Oeste 36 Oeste 0 -- -- 73
2021-02-09 00:00:00 8.4 17 Oeste 37 Noroeste 0 -- -- 72
2021-02-08 23:00:00 7.1 10 Noroeste 16 Oeste 0 -- -- 80
2021-02-08 22:00:00 7.8 5 Oeste 16 Norte 0 -- -- 77
2021-02-08 21:00:00 8 7 Noroeste 19 Noroeste 0 -- -- 76
2021-02-08 20:00:00 7.9 6 Noroeste 35 Oeste 0 -- -- 73
2021-02-08 19:00:00 9.4 17 Oeste 40 Oeste 0 -- -- 68
2021-02-08 18:00:00 11 19 Oeste 34 Oeste 0 -- -- 62
2021-02-08 17:00:00 10.6 16 Oeste 37 Oeste 0 -- -- 67
2021-02-08 16:00:00 10.8 17 Oeste 42 Oeste 0 -- -- 70
2021-02-08 15:00:00 11.5 20 Oeste 41 Oeste 0 -- -- 63
2021-02-08 14:00:00 12.6 21 Oeste 49 Oeste 0 -- -- 59
2021-02-08 13:00:00 11.6 24 Oeste 51 Oeste 0 -- -- 63
2021-02-08 12:00:00 10.1 21 Oeste 39 Oeste 0 -- -- 75
2021-02-08 11:00:00 6.9 6 Oeste 10 Noroeste 0 -- -- 90
2021-02-08 10:00:00 5.1 0 Calma 12 Nordeste 0 -- -- 96
2021-02-08 09:00:00 4.4 3 Sudoeste 8 Norte 0 -- -- 96
2021-02-08 08:00:00 4.8 5 Norte 9 Norte 0 -- -- 96
2021-02-08 07:00:00 4.8 6 Norte 10 Nordeste 0.2 -- -- 96
2021-02-08 06:00:00 4.7 0 Calma 6 Norte 0 -- -- 96
2021-02-08 05:00:00 4.7 5 Nordeste 8 Nordeste 0.4 -- -- 96
2021-02-08 04:00:00 4.9 5 Este 10 Este 0 -- -- 95
2021-02-08 03:00:00 4.9 4 Este 8 Este 0 -- -- 94
2021-02-08 02:00:00 5 6 Este 10 Este 0 -- -- 94
2021-02-08 01:00:00 5.2 3 Sur 8 Nordeste 0 -- -- 91
2021-02-08 00:00:00 5 3 Nordeste 8 Este 0 -- -- 92
2021-02-07 23:00:00 5.2 5 Este 6 Este 0 -- -- 92
2021-02-07 22:00:00 5.7 3 Norte 12 Noroeste 0.6 -- -- 91
2021-02-07 21:00:00 6.3 7 Oeste 26 Oeste 0.4 -- -- 85
2021-02-07 20:00:00 7 10 Oeste 24 Oeste 0.2 -- -- 77
2021-02-07 19:00:00 7.7 12 Oeste 36 Noroeste 0 -- -- 70
2021-02-07 18:00:00 8.6 11 Oeste 24 Oeste 0 -- -- 59
2021-02-07 17:00:00 9 12 Noroeste 29 Noroeste 0 -- -- 60
2021-02-07 16:00:00 9.4 14 Noroeste 31 Oeste 0 -- -- 56
2021-02-07 15:00:00 10.6 14 Oeste 30 Sudoeste 0 -- -- 52
2021-02-07 14:00:00 10.4 14 Oeste 28 Oeste 0 -- -- 55
2021-02-07 13:00:00 9.5 14 Oeste 27 Oeste 0 -- -- 60
2021-02-07 12:00:00 8.7 14 Oeste 24 Oeste 0 -- -- 63
2021-02-07 11:00:00 7.2 11 Oeste 23 Sudoeste 0 -- -- 72
2021-02-07 10:00:00 5.4 11 Oeste 18 Oeste 0 -- -- 76
2021-02-07 09:00:00 3 5 Oeste 10 Oeste 0 -- -- 87
2021-02-07 08:00:00 3.1 2 Sudoeste 21 Oeste 0 -- -- 86
2021-02-07 07:00:00 3.7 10 Oeste 24 Oeste 0 -- -- 81
2021-02-07 06:00:00 3.5 12 Oeste 22 Oeste 0 -- -- 84
2021-02-07 05:00:00 3 10 Noroeste 19 Oeste 0 -- -- 84
2021-02-07 04:00:00 3.4 6 Oeste 13 Noroeste 0 -- -- 85
2021-02-07 03:00:00 3.2 7 Oeste 17 Oeste 0 -- -- 86
2021-02-07 02:00:00 3.8 11 Noroeste 27 Noroeste 0 -- -- 81
2021-02-07 01:00:00 4.4 11 Noroeste 27 Noroeste 0 -- -- 77
2021-02-07 00:00:00 5.1 12 Noroeste 24 Noroeste 0 -- -- 77
2021-02-06 23:00:00 5.5 9 Oeste 22 Noroeste 0 -- -- 83
2021-02-06 22:00:00 5.7 10 Noroeste 20 Oeste 0 -- -- 82
2021-02-06 21:00:00 6 8 Oeste 17 Noroeste 0 -- -- 85
2021-02-06 20:00:00 6.1 6 Oeste 17 Oeste 0 -- -- 86
2021-02-06 19:00:00 6.3 9 Noroeste 21 Noroeste 0.2 -- -- 86
2021-02-06 18:00:00 6.7 7 Oeste 22 Oeste 0 -- -- 85
2021-02-06 17:00:00 7.2 10 Oeste 24 Noroeste 0 -- -- 86
2021-02-06 16:00:00 7.5 13 Oeste 35 Oeste 0.4 -- -- 88
2021-02-06 15:00:00 7.6 16 Oeste 32 Oeste 0.8 -- -- 89
2021-02-06 14:00:00 7.9 11 Oeste 23 Oeste 2.2 -- -- 96
2021-02-06 13:00:00 8.1 12 Oeste 28 Oeste 0.8 -- -- 95
2021-02-06 12:00:00 8.5 13 Oeste 24 Oeste 1 -- -- 96
2021-02-06 11:00:00 8.6 5 Sudoeste 8 Sudoeste 1 -- -- 97
2021-02-06 10:00:00 8.5 4 Sudeste 8 Este 0.2 -- -- 96
2021-02-06 09:00:00 8.4 6 Este 13 Este 0.2 -- -- 95
2021-02-06 08:00:00 8.6 5 Este 14 Nordeste 0 -- -- 94
2021-02-06 07:00:00 8.7 10 Este 18 Este 0 -- -- 92
2021-02-06 06:00:00 9 10 Este 18 Este 0 -- -- 90
2021-02-06 05:00:00 8.7 8 Este 14 Este 0 -- -- 90
2021-02-06 04:00:00 9 11 Este 26 Este 0 -- -- 88
2021-02-06 03:00:00 9.6 16 Este 24 Este 0 -- -- 86
2021-02-06 02:00:00 10 10 Este 26 Este 0 -- -- 84
2021-02-06 01:00:00 10.1 9 Este 13 Este 0 -- -- 86
2021-02-06 00:00:00 10.6 10 Este 15 Este 0 -- -- 84
2021-02-05 23:00:00 10.7 9 Este 13 Nordeste 0 -- -- 84
2021-02-05 22:00:00 10.5 7 Nordeste 13 Nordeste 0 -- -- 85
2021-02-05 21:00:00 10.4 9 Nordeste 17 Nordeste 0 -- -- 85
2021-02-05 20:00:00 10.2 8 Nordeste 13 Nordeste 0 -- -- 85
2021-02-05 19:00:00 10.3 7 Nordeste 10 Nordeste 0 -- -- 84
2021-02-05 18:00:00 11.6 5 Este 16 Sudeste 0 -- -- 80
2021-02-05 17:00:00 13.6 13 Sudeste 21 Sudeste 0 -- -- 72
2021-02-05 16:00:00 14.9 10 Sudeste 26 Sudeste 0 -- -- 67
2021-02-05 15:00:00 15 18 Sudeste 35 Este 0 -- -- 67
2021-02-05 14:00:00 15.1 22 Sudeste 36 Sudeste 0 -- -- 64
2021-02-05 13:00:00 14.6 5 Sudeste 12 Sudeste 0 -- -- 70
2021-02-05 12:00:00 13.4 4 Sudoeste 10 Sudoeste 0 -- -- 76
2021-02-05 11:00:00 11.7 3 Sur 6 Sur 0 -- -- 81
2021-02-05 10:00:00 9.8 3 Sudoeste 9 Noroeste 0 -- -- 91
2021-02-05 09:00:00 8.3 2 Norte 10 Noroeste 0 -- -- 92
2021-02-05 08:00:00 8.5 5 Norte 16 Este 0 -- -- 89
2021-02-05 07:00:00 8.9 8 Este 18 Este 0 -- -- 90
2021-02-05 06:00:00 9.7 10 Este 24 Nordeste 0.2 -- -- 89
2021-02-05 05:00:00 9.6 12 Nordeste 23 Este 0 -- -- 88
2021-02-05 04:00:00 9.3 13 Nordeste 23 Nordeste 0 -- -- 90
2021-02-05 03:00:00 9.2 6 Este 15 Este 0 -- -- 90
2021-02-05 02:00:00 8.6 8 Nordeste 18 Este 0 -- -- 91
2021-02-05 01:00:00 8.6 9 Nordeste 18 Este 0 -- -- 91
2021-02-05 00:00:00 9.2 14 Este 19 Este 0 -- -- 91
2021-02-04 23:00:00 10.1 10 Este 22 Este 0 -- -- 86
2021-02-04 22:00:00 10.7 10 Este 19 Sudeste 0 -- -- 84
2021-02-04 21:00:00 11.5 9 Sudeste 16 Sudeste 0 -- -- 82
2021-02-04 20:00:00 11.6 8 Este 12 Sudeste 0 -- -- 82
2021-02-04 19:00:00 11.9 8 Este 14 Este 0 -- -- 81
2021-02-04 18:00:00 13.9 6 Sudeste 17 Sudeste 0 -- -- 76
2021-02-04 17:00:00 15 13 Sudeste 23 Sudeste 0 -- -- 71
2021-02-04 16:00:00 16 12 Sudeste 22 Sudeste 0 -- -- 66
2021-02-04 15:00:00 15 14 Sudeste 23 Este 0 -- -- 68
2021-02-04 14:00:00 14.7 13 Este 20 Este 0 -- -- 71
2021-02-04 13:00:00 12.9 10 Este 17 Este 0 -- -- 79
2021-02-04 12:00:00 11.4 9 Este 23 Este 0 -- -- 83
2021-02-04 11:00:00 11.3 13 Este 18 Este 0 -- -- 85
2021-02-04 10:00:00 10.3 5 Nordeste 10 Este 0 -- -- 90
2021-02-04 09:00:00 9.3 5 Nordeste 10 Nordeste 0 -- -- 92
2021-02-04 08:00:00 9.5 4 Este 10 Este 0 -- -- 89
2021-02-04 07:00:00 9.5 6 Nordeste 12 Este 0 -- -- 88
2021-02-04 06:00:00 9.5 6 Nordeste 11 Nordeste 0 -- -- 89
2021-02-04 05:00:00 9.1 7 Nordeste 10 Este 0 -- -- 90
2021-02-04 04:00:00 9.4 6 Nordeste 10 Nordeste 0 -- -- 90
2021-02-04 03:00:00 9.3 3 Nordeste 9 Este 0 -- -- 92
2021-02-04 02:00:00 9.1 6 Nordeste 9 Nordeste 0 -- -- 94
2021-02-04 01:00:00 9.4 4 Este 11 Este 0 -- -- 92
2021-02-04 00:00:00 9.3 7 Norte 11 Norte 0 -- -- 93
2021-02-03 23:00:00 9.2 5 Norte 8 Norte 0 -- -- 93
2021-02-03 22:00:00 9.2 0 Calma 12 Noroeste 0 -- -- 93
2021-02-03 21:00:00 9 5 Nordeste 11 Norte 0.2 -- -- 94
2021-02-03 20:00:00 9.5 10 Norte 14 Noroeste 0 -- -- 91
2021-02-03 19:00:00 10.6 8 Norte 12 Norte 0.2 -- -- 90
2021-02-03 18:00:00 11.7 7 Norte 9 Norte 0 -- -- 86
2021-02-03 17:00:00 12.6 7 Nordeste 10 Norte 0 -- -- 82
2021-02-03 16:00:00 13.6 4 Sudeste 8 Sudeste 0 -- -- 73
2021-02-03 15:00:00 13.9 4 Sur 8 Sudoeste 0 -- -- 71
2021-02-03 14:00:00 12.8 3 Sudeste 16 Este 0 -- -- 78
2021-02-03 13:00:00 11.9 10 Este 21 Este 0 -- -- 81
2021-02-03 12:00:00 12.2 10 Nordeste 15 Nordeste 0 -- -- 79
2021-02-03 11:00:00 10.6 9 Este 16 Nordeste 0 -- -- 80
2021-02-03 10:00:00 9.7 7 Nordeste 18 Nordeste 0 -- -- 80
2021-02-03 09:00:00 9.2 9 Nordeste 15 Nordeste 0 -- -- 80
2021-02-03 08:00:00 8.8 10 Nordeste 17 Nordeste 0 -- -- 82
2021-02-03 07:00:00 9.1 9 Nordeste 17 Este 0 -- -- 81
2021-02-03 06:00:00 8.6 9 Nordeste 14 Nordeste 0 -- -- 85
2021-02-03 05:00:00 8.2 10 Nordeste 17 Nordeste 0 -- -- 87
2021-02-03 04:00:00 8 8 Nordeste 14 Nordeste 0 -- -- 86
2021-02-03 03:00:00 8 8 Nordeste 14 Nordeste 0 -- -- 87
2021-02-03 02:00:00 8.6 6 Este 15 Este 0 -- -- 84
2021-02-03 01:00:00 8.3 8 Nordeste 11 Este 0 -- -- 85
2021-02-03 00:00:00 8.7 7 Nordeste 11 Nordeste 0 -- -- 84
2021-02-02 23:00:00 9.3 8 Este 11 Este 0 -- -- 81
2021-02-02 22:00:00 8.9 8 Este 10 Nordeste 0 -- -- 85
2021-02-02 21:00:00 9.7 4 Nordeste 9 Este 0 -- -- 79
2021-02-02 20:00:00 10.9 7 Este 10 Este 0 -- -- 76
2021-02-02 19:00:00 12 4 Nordeste 8 Este 0 -- -- 72
2021-02-02 18:00:00 15.3 4 Nordeste 12 Noroeste 0 -- -- 61
2021-02-02 17:00:00 16.9 5 Noroeste 15 Oeste 0 -- -- 56
2021-02-02 16:00:00 17.7 7 Oeste 17 Oeste 0 -- -- 52
2021-02-02 15:00:00 17.9 10 Sudoeste 22 Oeste 0 -- -- 52
2021-02-02 14:00:00 16.7 9 Oeste 21 Oeste 0 -- -- 54
2021-02-02 13:00:00 17.5 12 Oeste 33 Oeste 0 -- -- 53
2021-02-02 12:00:00 16.2 14 Oeste 33 Oeste 0 -- -- 58
2021-02-02 11:00:00 15.7 16 Oeste 41 Oeste 0 -- -- 58
2021-02-02 10:00:00 14.3 17 Oeste 44 Oeste 0 -- -- 60
2021-02-02 09:00:00 13.6 19 Oeste 57 Oeste 0 -- -- 63
2021-02-02 08:00:00 13.3 26 Oeste 51 Noroeste 0 -- -- 66
2021-02-02 07:00:00 13.1 21 Oeste 41 Oeste 0 -- -- 68
2021-02-02 06:00:00 11.6 13 Oeste 32 Noroeste 0 -- -- 76
2021-02-02 05:00:00 10.9 7 Oeste 29 Oeste 0 -- -- 79
2021-02-02 04:00:00 12.3 14 Oeste 46 Oeste 0 -- -- 74
2021-02-02 03:00:00 13 22 Oeste 41 Oeste 0 -- -- 71
2021-02-02 02:00:00 12.6 18 Oeste 45 Noroeste 0 -- -- 72
2021-02-02 01:00:00 11.5 11 Oeste 39 Noroeste 0 -- -- 73
2021-02-02 00:00:00 12.1 24 Noroeste 38 Noroeste 0 -- -- 70
2021-02-01 23:00:00 12.9 12 Noroeste 33 Noroeste 0 -- -- 67
2021-02-01 22:00:00 14.3 21 Noroeste 37 Oeste 0 -- -- 62
2021-02-01 21:00:00 13.4 13 Noroeste 33 Noroeste 0 -- -- 68
2021-02-01 20:00:00 14.1 23 Oeste 41 Oeste 0 -- -- 64
2021-02-01 19:00:00 13.9 10 Noroeste 38 Oeste 0 -- -- 67
2021-02-01 18:00:00 15 17 Oeste 40 Oeste 0 -- -- 62
2021-02-01 17:00:00 15.6 9 Oeste 17 Noroeste 0 -- -- 64
2021-02-01 16:00:00 13.9 9 Norte 28 Oeste 0 -- -- 70
2021-02-01 15:00:00 14.1 12 Oeste 30 Oeste 0 -- -- 67
2021-02-01 14:00:00 13.3 11 Oeste 35 Oeste 0 -- -- 66
2021-02-01 13:00:00 13 20 Oeste 40 Oeste 0 -- -- 66
2021-02-01 12:00:00 13.6 18 Oeste 31 Oeste 0 -- -- 61
2021-02-01 11:00:00 13.9 4 Sur 10 Oeste 0 -- -- 57
2021-02-01 10:00:00 11.1 6 Noroeste 27 Oeste 0 -- -- 66
2021-02-01 09:00:00 7.7 9 Oeste 21 Oeste 0 -- -- 78
2021-02-01 08:00:00 6.9 0 Calma 7 Oeste 0 -- -- 78
2021-02-01 07:00:00 8 4 Oeste 25 Noroeste 0 -- -- 75
2021-02-01 06:00:00 8.8 11 Oeste 25 Oeste 0 -- -- 72
2021-02-01 05:00:00 9.2 9 Oeste 21 Oeste 0 -- -- 69
2021-02-01 04:00:00 10.5 13 Oeste 28 Noroeste 0 -- -- 64
2021-02-01 03:00:00 11.4 12 Oeste 36 Oeste 0 -- -- 62
2021-02-01 02:00:00 11.8 13 Oeste 40 Noroeste 0 -- -- 62
2021-02-01 01:00:00 12.3 19 Oeste 52 Noroeste 0 -- -- 61
2021-02-01 00:00:00 12.8 26 Oeste 56 Oeste 0 -- -- 60
2021-01-31 23:00:00 13.5 29 Oeste 66 Oeste 0 -- -- 59
2021-01-31 22:00:00 14.3 27 Oeste 59 Oeste 0 -- -- 57
2021-01-31 21:00:00 14.8 27 Oeste 59 Oeste 0 -- -- 56
2021-01-31 20:00:00 14.3 19 Oeste 36 Oeste 0 -- -- 61
2021-01-31 19:00:00 14.5 18 Oeste 48 Noroeste 0 -- -- 62
2021-01-31 18:00:00 14.5 18 Oeste 41 Oeste 0 -- -- 64
2021-01-31 17:00:00 14.3 16 Oeste 41 Oeste 0 -- -- 68
2021-01-31 16:00:00 15.1 12 Noroeste 39 Norte 0 -- -- 65
2021-01-31 15:00:00 17 25 Noroeste 45 Noroeste 0 -- -- 59
2021-01-31 14:00:00 16.3 21 Noroeste 37 Noroeste 0 -- -- 62
2021-01-31 13:00:00 11.2 16 Noroeste 35 Oeste 0 -- -- 77
2021-01-31 12:00:00 9.7 12 Noroeste 24 Noroeste 0 -- -- 82
2021-01-31 11:00:00 9.4 12 Noroeste 20 Oeste 0 -- -- 75
2021-01-31 10:00:00 8.1 13 Oeste 35 Oeste 0 -- -- 78
2021-01-31 09:00:00 7.9 12 Oeste 29 Noroeste 0 -- -- 73
2021-01-31 08:00:00 8 13 Oeste 33 Oeste 0 -- -- 72
2021-01-31 07:00:00 8 13 Oeste 30 Oeste 0 -- -- 73
2021-01-31 06:00:00 7.3 11 Oeste 30 Noroeste 0 -- -- 78
2021-01-31 05:00:00 6.6 13 Oeste 39 Oeste 0.2 -- -- 84
2021-01-31 04:00:00 6.8 17 Oeste 44 Oeste 0.2 -- -- 83
2021-01-31 03:00:00 7.5 22 Oeste 45 Oeste 0 -- -- 77
2021-01-31 02:00:00 7.2 10 Oeste 26 Noroeste 0 -- -- 73
2021-01-31 01:00:00 7.3 3 Nordeste 19 Oeste 0 -- -- 70
2021-01-31 00:00:00 8.1 13 Oeste 36 Oeste 0 -- -- 68